createdAt,value
2018-10-03T00:00:06.492Z,95.79
2018-10-03T00:01:16.263Z,95.6
2018-10-03T00:02:26.032Z,94.84
2018-10-03T00:03:35.793Z,94.74
2018-10-03T00:04:45.286Z,93.99
2018-10-03T00:05:55.316Z,94.37
2018-10-03T00:07:04.818Z,94.37
2018-10-03T00:08:14.583Z,93.61
2018-10-03T00:09:24.667Z,93.61
2018-10-03T00:10:34.432Z,93.51
2018-10-03T00:11:43.928Z,93.04
2018-10-03T00:12:53.956Z,93.61
2018-10-03T00:14:03.716Z,93.04
2018-10-03T00:15:13.797Z,93.7
2018-10-03T00:16:23.827Z,93.7
2018-10-03T00:17:33.320Z,93.51
2018-10-03T00:18:43.087Z,92.94
2018-10-03T00:19:52.860Z,93.51
2018-10-03T00:21:02.945Z,93.99
2018-10-03T00:22:12.706Z,92.04
2018-10-03T00:23:22.719Z,91.38
2018-10-03T00:24:32.953Z,93.04
2018-10-03T00:25:42.985Z,92.61
2018-10-03T00:26:53.024Z,92.18
2018-10-03T00:28:03.096Z,92.8
2018-10-03T00:29:12.586Z,92.61
2018-10-03T00:30:22.351Z,92.09
2018-10-03T00:31:31.841Z,92.38
2018-10-03T00:32:41.870Z,91.61
2018-10-03T00:33:51.908Z,92.94
2018-10-03T00:35:01.665Z,92.71
2018-10-03T00:36:11.430Z,92.33
2018-10-03T00:37:21.202Z,91.61
2018-10-03T00:38:31.278Z,90.19
2018-10-03T00:39:41.312Z,90.19
2018-10-03T00:40:51.345Z,90.14
2018-10-03T00:42:01.390Z,90.52
2018-10-03T00:43:10.885Z,91.47
2018-10-03T00:44:20.646Z,91.66
2018-10-03T00:45:30.405Z,90.62
2018-10-03T00:46:40.433Z,90.14
2018-10-03T00:47:50.462Z,90.29
2018-10-03T00:49:00.223Z,91.52
2018-10-03T00:50:09.716Z,90.62
2018-10-03T00:51:19.746Z,89.15
2018-10-03T00:52:28.966Z,88.39
2018-10-03T00:53:38.741Z,89.62
2018-10-03T00:54:48.501Z,90.24
2018-10-03T00:55:58.574Z,90.76
2018-10-03T00:57:08.335Z,90.76
2018-10-03T00:58:18.099Z,89.53
2018-10-03T00:59:27.861Z,87.82
2018-10-03T01:00:37.894Z,88.58
2018-10-03T01:01:47.652Z,89.06
2018-10-03T01:02:57.415Z,88.58
2018-10-03T01:04:07.447Z,89.06
2018-10-03T01:05:17.480Z,88.2
2018-10-03T01:06:27.509Z,88.1
2018-10-03T01:07:39.543Z,87.92
2018-10-03T01:08:49.301Z,87.73
2018-10-03T01:09:58.794Z,86.68
2018-10-03T01:11:08.569Z,87.35
2018-10-03T01:12:18.060Z,87.25
2018-10-03T01:13:27.817Z,87.45
2018-10-03T01:14:37.845Z,87.25
2018-10-03T01:15:47.913Z,88.58
2018-10-03T01:16:57.693Z,87.06
2018-10-03T01:18:07.733Z,86.78
2018-10-03T01:19:17.284Z,87.82
2018-10-03T01:20:26.774Z,87.82
2018-10-03T01:21:36.808Z,86.97
2018-10-03T01:22:46.844Z,86.68
2018-10-03T01:23:56.881Z,86.78
2018-10-03T01:25:06.652Z,84.98
2018-10-03T01:26:16.705Z,84.12
2018-10-03T01:27:26.746Z,85.26
2018-10-03T01:28:36.509Z,85.07
2018-10-03T01:29:46.539Z,84.41
2018-10-03T01:30:56.571Z,84.31
2018-10-03T01:32:06.604Z,84.31
2018-10-03T01:33:16.360Z,84.03
2018-10-03T01:34:26.126Z,85.17
2018-10-03T01:35:35.364Z,83.84
2018-10-03T01:36:44.856Z,83.84
2018-10-03T01:37:54.350Z,83.84
2018-10-03T01:39:04.124Z,83.94
2018-10-03T01:40:14.161Z,82.98
2018-10-03T01:41:24.191Z,83.84
2018-10-03T01:42:33.687Z,85.45
2018-10-03T01:43:43.724Z,84.41
2018-10-03T01:44:53.264Z,84.59
2018-10-03T01:46:03.025Z,85.07
2018-10-03T01:47:13.064Z,85.83
2018-10-03T01:48:22.824Z,85.07
2018-10-03T01:49:32.586Z,84.74
2018-10-03T01:50:42.346Z,83.98
2018-10-03T01:51:51.835Z,83.89
2018-10-03T01:53:01.594Z,83.8
2018-10-03T01:54:11.359Z,85.03
2018-10-03T01:55:21.404Z,83.89
2018-10-03T01:56:31.431Z,83.51
2018-10-03T01:57:41.464Z,83.98
2018-10-03T01:58:51.557Z,83.89
2018-10-03T02:00:01.595Z,84.55
2018-10-03T02:01:11.379Z,84.27
2018-10-03T02:02:20.870Z,84.36
2018-10-03T02:03:30.627Z,84.27
2018-10-03T02:04:40.655Z,84.17
2018-10-03T02:05:50.682Z,83.61
2018-10-03T02:07:00.440Z,83.61
2018-10-03T02:08:09.928Z,83.61
2018-10-03T02:09:19.695Z,84.17
2018-10-03T02:10:29.194Z,84.27
2018-10-03T02:11:39.232Z,83.8
2018-10-03T02:12:49.256Z,84.08
2018-10-03T02:13:59.015Z,84.17
2018-10-03T02:15:09.047Z,84.74
2018-10-03T02:16:18.823Z,84.94
2018-10-03T02:17:28.860Z,84.27
2018-10-03T02:18:38.888Z,84.36
2018-10-03T02:19:48.919Z,84.55
2018-10-03T02:20:58.688Z,83.8
2018-10-03T02:22:08.724Z,84.36
2018-10-03T02:23:18.482Z,83.8
2018-10-03T02:24:27.976Z,84.08
2018-10-03T02:25:38.002Z,83.51
2018-10-03T02:26:48.031Z,83.89
2018-10-03T02:27:57.793Z,84.55
2018-10-03T02:29:07.558Z,84.04
2018-10-03T02:30:17.592Z,84.55
2018-10-03T02:31:27.360Z,84.13
2018-10-03T02:32:37.390Z,84.32
2018-10-03T02:33:47.428Z,84.13
2018-10-03T02:34:57.458Z,84.27
2018-10-03T02:36:07.225Z,83.85
2018-10-03T02:37:17.259Z,83.7
2018-10-03T02:38:27.018Z,83.98
2018-10-03T02:39:36.785Z,83.89
2018-10-03T02:40:46.286Z,84.46
2018-10-03T02:41:56.329Z,84.17
2018-10-03T02:43:05.845Z,83.04
2018-10-03T02:44:15.605Z,83.04
2018-10-03T02:45:25.368Z,82.47
2018-10-03T02:46:35.403Z,82.37
2018-10-03T02:47:45.438Z,81.43
2018-10-03T02:48:55.472Z,81.33
2018-10-03T02:50:04.971Z,81.81
2018-10-03T02:51:14.736Z,81.14
2018-10-03T02:52:24.252Z,81.14
2018-10-03T02:53:34.026Z,81.33
2018-10-03T02:54:44.068Z,81.24
2018-10-03T02:55:53.566Z,81.62
2018-10-03T02:57:03.600Z,80.86
2018-10-03T02:58:13.369Z,81.33
2018-10-03T02:59:23.401Z,80.38
2018-10-03T03:00:33.164Z,79.44
2018-10-03T03:01:42.872Z,80.19
2018-10-03T03:02:53.450Z,80.48
2018-10-03T03:04:03.480Z,80.76
2018-10-03T03:05:13.558Z,80.86
2018-10-03T03:06:23.590Z,80.95
2018-10-03T03:07:33.389Z,81.05
2018-10-03T03:08:43.592Z,80.76
2018-10-03T03:09:54.039Z,81.62
2018-10-03T03:11:04.084Z,80.53
2018-10-03T03:12:14.114Z,80.57
2018-10-03T03:13:23.884Z,80.82
2018-10-03T03:14:33.921Z,80.67
2018-10-03T03:15:43.685Z,80.19
2018-10-03T03:16:53.711Z,80.19
2018-10-03T03:18:03.474Z,80.57
2018-10-03T03:19:13.233Z,80.86
2018-10-03T03:20:23.018Z,80.29
2018-10-03T03:21:32.526Z,80.48
2018-10-03T03:22:42.566Z,80
2018-10-03T03:23:51.789Z,79.82
2018-10-03T03:25:01.834Z,80
2018-10-03T03:26:11.860Z,80.48
2018-10-03T03:27:21.894Z,80
2018-10-03T03:28:31.940Z,79.96
2018-10-03T03:29:41.723Z,79.34
2018-10-03T03:30:51.756Z,79.72
2018-10-03T03:32:01.799Z,80
2018-10-03T03:33:11.854Z,79.91
2018-10-03T03:34:21.890Z,79.34
2018-10-03T03:35:31.938Z,79.53
2018-10-03T03:36:41.700Z,79.06
2018-10-03T03:37:51.460Z,79.25
2018-10-03T03:39:01.489Z,78.67
2018-10-03T03:40:10.744Z,79.15
2018-10-03T03:41:20.507Z,78.58
2018-10-03T03:42:30.269Z,78.87
2018-10-03T03:43:40.297Z,78.67
2018-10-03T03:44:50.333Z,78.87
2018-10-03T03:45:59.824Z,78.96
2018-10-03T03:47:09.615Z,78.96
2018-10-03T03:48:19.379Z,79.25
2018-10-03T03:49:29.424Z,79.44
2018-10-03T03:50:39.187Z,79.44
2018-10-03T03:51:48.688Z,79.25
2018-10-03T03:52:58.734Z,78.39
2018-10-03T03:54:08.777Z,78.39
2018-10-03T03:55:18.288Z,78.02
2018-10-03T03:56:28.322Z,78.2
2018-10-03T03:57:38.090Z,77.92
2018-10-03T03:58:47.861Z,78.2
2018-10-03T03:59:57.910Z,78.3
2018-10-03T04:01:07.736Z,78.39
2018-10-03T04:02:17.783Z,78.02
2018-10-03T04:03:27.819Z,78.77
2018-10-03T04:04:37.316Z,78.87
2018-10-03T04:05:47.086Z,78.3
2018-10-03T04:06:56.856Z,78.67
2018-10-03T04:08:06.896Z,78.77
2018-10-03T04:09:16.661Z,78.58
2018-10-03T04:10:26.721Z,79.63
2018-10-03T04:11:36.750Z,79.63
2018-10-03T04:12:46.536Z,79.49
2018-10-03T04:13:56.300Z,79.72
2018-10-03T04:15:06.356Z,79.53
2018-10-03T04:16:16.123Z,79.11
2018-10-03T04:17:26.166Z,79.68
2018-10-03T04:18:35.931Z,79.96
2018-10-03T04:19:45.425Z,80.82
2018-10-03T04:20:55.455Z,80.63
2018-10-03T04:22:05.481Z,81.2
2018-10-03T04:23:15.245Z,81.29
2018-10-03T04:24:25.279Z,81.57
2018-10-03T04:25:35.037Z,81.67
2018-10-03T04:26:45.066Z,82.14
2018-10-03T04:27:55.122Z,82.33
2018-10-03T04:29:04.875Z,82.81
2018-10-03T04:30:14.909Z,83.28
2018-10-03T04:31:24.997Z,84.13
2018-10-03T04:32:35.028Z,85.27
2018-10-03T04:33:45.096Z,85.08
2018-10-03T04:34:55.133Z,84.99
2018-10-03T04:36:04.623Z,84.7
2018-10-03T04:37:14.655Z,85.13
2018-10-03T04:38:24.686Z,85.89
2018-10-03T04:39:34.486Z,85.7
2018-10-03T04:40:44.520Z,86.55
2018-10-03T04:41:54.286Z,85.99
2018-10-03T04:43:04.393Z,86.18
2018-10-03T04:44:14.422Z,86.36
2018-10-03T04:45:24.490Z,86.55
2018-10-03T04:46:34.266Z,86.18
2018-10-03T04:47:44.293Z,86.18
2018-10-03T04:48:54.145Z,86.83
2018-10-03T04:50:04.295Z,86.55
2018-10-03T04:51:14.320Z,86.65
2018-10-03T04:52:24.345Z,87.12
2018-10-03T04:53:34.371Z,87.88
2018-10-03T04:54:44.450Z,87.78
2018-10-03T04:55:54.211Z,88.21
2018-10-03T04:57:03.975Z,88.45
2018-10-03T04:58:13.999Z,88.31
2018-10-03T04:59:23.495Z,88.97
2018-10-03T05:00:33.311Z,88.68
2018-10-03T05:01:43.089Z,89.54
2018-10-03T05:02:53.109Z,89.63
2018-10-03T05:04:03.143Z,90.01
2018-10-03T05:05:12.899Z,90.2
2018-10-03T05:06:22.176Z,90.2
2018-10-03T05:07:32.205Z,90.77
2018-10-03T05:08:41.965Z,91.05
2018-10-03T05:09:51.999Z,91.05
2018-10-03T05:11:01.759Z,90.96
2018-10-03T05:12:11.983Z,91.05
2018-10-03T05:13:21.205Z,90.48
2018-10-03T05:14:30.700Z,91.15
2018-10-03T05:15:40.722Z,91.53
2018-10-03T05:16:50.472Z,91.43
2018-10-03T05:18:00.277Z,91.24
2018-10-03T05:19:10.036Z,91.43
2018-10-03T05:20:20.070Z,91.62
2018-10-03T05:21:29.563Z,91.24
2018-10-03T05:22:39.060Z,92.1
2018-10-03T05:23:49.146Z,91.62
2018-10-03T05:24:59.180Z,91.05
2018-10-03T05:26:08.669Z,91.34
2018-10-03T05:27:18.424Z,90.86
2018-10-03T05:28:27.911Z,91.05
2018-10-03T05:29:37.666Z,91.24
2018-10-03T05:30:47.427Z,91.43
2018-10-03T05:31:56.916Z,91.24
2018-10-03T05:33:06.679Z,91.34
2018-10-03T05:34:16.892Z,91.43
2018-10-03T05:35:26.974Z,91.24
2018-10-03T05:36:36.466Z,91.34
2018-10-03T05:37:46.493Z,91.43
2018-10-03T05:38:56.512Z,90.86
2018-10-03T05:40:06.273Z,90.86
2018-10-03T05:41:15.809Z,90.67
2018-10-03T05:42:25.572Z,90.96
2018-10-03T05:43:35.333Z,90.11
2018-10-03T05:44:45.355Z,90.86
2018-10-03T05:45:55.385Z,90.39
2018-10-03T05:47:05.202Z,90.39
2018-10-03T05:48:15.266Z,89.92
2018-10-03T05:49:25.577Z,90.01
2018-10-03T05:50:35.604Z,88.97
2018-10-03T05:51:45.370Z,88.4
2018-10-03T05:52:55.445Z,88.49
2018-10-03T05:54:05.470Z,88.31
2018-10-03T05:55:15.502Z,88.82
2018-10-03T05:56:25.532Z,88.73
2018-10-03T05:57:35.562Z,88.54
2018-10-03T05:58:45.099Z,88.82
2018-10-03T05:59:55.137Z,88.26
2018-10-03T06:01:04.622Z,89.11
2018-10-03T06:02:14.655Z,89.11
2018-10-03T06:03:24.676Z,88.92
2018-10-03T06:04:34.483Z,88.92
2018-10-03T06:05:44.247Z,89.11
2018-10-03T06:06:54.269Z,89.39
2018-10-03T06:08:04.036Z,89.3
2018-10-03T06:09:14.059Z,89.49
2018-10-03T06:10:23.920Z,89.77
2018-10-03T06:11:33.955Z,89.87
2018-10-03T06:12:43.710Z,90.53
2018-10-03T06:13:53.750Z,90.63
2018-10-03T06:15:03.782Z,90.53
2018-10-03T06:16:13.608Z,90.81
2018-10-03T06:17:23.932Z,90.72
2018-10-03T06:18:34.186Z,91.29
2018-10-03T06:19:44.375Z,91.57
2018-10-03T06:20:54.133Z,91.29
2018-10-03T06:22:03.949Z,92.19
2018-10-03T06:23:13.978Z,92.66
2018-10-03T06:24:24.055Z,92.94
2018-10-03T06:25:34.092Z,92.76
2018-10-03T06:26:44.126Z,93.7
2018-10-03T06:27:54.404Z,94.56
2018-10-03T06:29:04.108Z,95.21
2018-10-03T06:30:14.132Z,95.88
2018-10-03T06:31:24.154Z,96.26
2018-10-03T06:32:33.904Z,96.16
2018-10-03T06:33:43.437Z,96.83
2018-10-03T06:34:52.925Z,96.64
2018-10-03T06:36:02.691Z,97.39
2018-10-03T06:37:12.451Z,97.2
2018-10-03T06:38:22.210Z,97.11
2018-10-03T06:39:32.228Z,96.35
2018-10-03T06:40:42.442Z,96.92
2018-10-03T06:41:52.268Z,96.5
2018-10-03T06:43:02.575Z,95.93
2018-10-03T06:44:12.869Z,95.74
2018-10-03T06:45:23.147Z,94.98
2018-10-03T06:46:33.293Z,95.17
2018-10-03T06:47:43.045Z,94.98
2018-10-03T06:48:53.075Z,94.42
2018-10-03T06:50:03.114Z,93.84
2018-10-03T06:51:13.193Z,94.42
2018-10-03T06:52:23.301Z,94.32
2018-10-03T06:53:33.319Z,94.23
2018-10-03T06:54:43.071Z,94.32
2018-10-03T06:55:53.104Z,93.37
2018-10-03T06:57:03.056Z,93.56
2018-10-03T06:58:12.757Z,92.9
2018-10-03T06:59:22.792Z,91.86
2018-10-03T07:00:32.830Z,90.95
2018-10-03T07:01:42.590Z,91.05
2018-10-03T07:02:52.409Z,90.39
2018-10-03T07:04:02.442Z,89.82
2018-10-03T07:05:12.471Z,89.34
2018-10-03T07:06:22.493Z,88.96
2018-10-03T07:07:32.258Z,88.3
2018-10-03T07:08:41.795Z,89.15
2018-10-03T07:09:51.817Z,88.3
2018-10-03T07:11:01.846Z,88.59
2018-10-03T07:12:11.883Z,87.54
2018-10-03T07:13:21.642Z,87.54
2018-10-03T07:14:31.137Z,87.45
2018-10-03T07:15:41.204Z,87.92
2018-10-03T07:16:51.232Z,87.73
2018-10-03T07:18:01.265Z,87.64
2018-10-03T07:19:11.293Z,88.02
2018-10-03T07:20:21.583Z,88.49
2018-10-03T07:21:31.073Z,88.49
2018-10-03T07:22:41.111Z,89.01
2018-10-03T07:23:50.916Z,89.77
2018-10-03T07:25:00.138Z,89.72
2018-10-03T07:26:10.299Z,89.44
2018-10-03T07:27:20.648Z,89.25
2018-10-03T07:28:30.409Z,88.96
2018-10-03T07:29:39.902Z,87.92
2018-10-03T07:30:49.658Z,88.3
2018-10-03T07:31:59.749Z,89.06
2018-10-03T07:33:08.968Z,89.06
2018-10-03T07:34:18.998Z,89.15
2018-10-03T07:35:28.750Z,89.72
2018-10-03T07:36:38.509Z,90.15
2018-10-03T07:37:48.532Z,89.15
2018-10-03T07:38:58.287Z,89.01
2018-10-03T07:40:08.059Z,89.01
2018-10-03T07:41:17.828Z,89.39
2018-10-03T07:42:27.316Z,88.73
2018-10-03T07:43:36.859Z,87.77
2018-10-03T07:44:46.618Z,87.49
2018-10-03T07:45:56.113Z,86.93
2018-10-03T07:47:05.867Z,86.64
2018-10-03T07:48:15.627Z,87.68
2018-10-03T07:49:25.713Z,88.63
2018-10-03T07:50:35.476Z,88.63
2018-10-03T07:51:45.511Z,87.77
2018-10-03T07:52:54.732Z,88.06
2018-10-03T07:54:04.487Z,87.68
2018-10-03T07:55:14.355Z,87.59
2018-10-03T07:56:24.135Z,87.06
2018-10-03T07:57:34.311Z,87.02
2018-10-03T07:58:44.347Z,88.2
2018-10-03T07:59:54.549Z,87.06
2018-10-03T08:01:04.364Z,85.74
2018-10-03T08:02:14.124Z,87.35
2018-10-03T08:03:24.155Z,87.16
2018-10-03T08:04:33.906Z,87.25
2018-10-03T08:05:43.715Z,87.45
2018-10-03T08:06:53.480Z,86.78
2018-10-03T08:08:03.548Z,87.45
2018-10-03T08:09:13.316Z,87.73
2018-10-03T08:10:23.348Z,87.63
2018-10-03T08:11:33.374Z,87.54
2018-10-03T08:12:43.455Z,87.73
2018-10-03T08:13:53.486Z,85.93
2018-10-03T08:15:03.276Z,87.16
2018-10-03T08:16:13.052Z,86.87
2018-10-03T08:17:23.122Z,86.25
2018-10-03T08:18:33.739Z,85.87
2018-10-03T08:19:43.769Z,86.54
2018-10-03T08:20:53.525Z,86.35
2018-10-03T08:22:03.555Z,86.82
2018-10-03T08:23:13.598Z,86.16
2018-10-03T08:24:23.453Z,84.36
2018-10-03T08:25:33.504Z,84.26
2018-10-03T08:26:42.991Z,85.21
2018-10-03T08:27:52.751Z,84.92
2018-10-03T08:29:02.785Z,85.3
2018-10-03T08:30:12.752Z,85.02
2018-10-03T08:31:22.794Z,84.45
2018-10-03T08:32:33.118Z,84.4
2018-10-03T08:33:43.383Z,85.16
2018-10-03T08:34:53.144Z,84.01
2018-10-03T08:36:02.961Z,84.3
2018-10-03T08:37:12.985Z,85.06
2018-10-03T08:38:22.742Z,83.64
2018-10-03T08:39:32.639Z,83.92
2018-10-03T08:40:42.135Z,83.07
2018-10-03T08:41:52.268Z,81.84
2018-10-03T08:43:02.306Z,81.17
2018-10-03T08:44:12.084Z,81.26
2018-10-03T08:45:21.585Z,81.65
2018-10-03T08:46:31.292Z,82.03
2018-10-03T08:47:41.126Z,82.12
2018-10-03T08:48:50.618Z,82.88
2018-10-03T08:50:00.111Z,82.69
2018-10-03T08:51:09.613Z,82.88
2018-10-03T08:52:19.642Z,82.97
2018-10-03T08:53:29.461Z,83.73
2018-10-03T08:54:39.222Z,83.64
2018-10-03T08:55:48.727Z,83.54
2018-10-03T08:56:58.225Z,84.21
2018-10-03T08:58:08.468Z,84.59
2018-10-03T08:59:18.868Z,84.63
2018-10-03T09:00:28.633Z,84.44
2018-10-03T09:01:38.674Z,84.53
2018-10-03T09:02:48.440Z,83.49
2018-10-03T09:03:58.203Z,83.2
2018-10-03T09:05:07.699Z,83.68
2018-10-03T09:06:17.461Z,83.2
2018-10-03T09:07:27.222Z,82.97
2018-10-03T09:08:37.256Z,83.45
2018-10-03T09:09:46.757Z,83.36
2018-10-03T09:10:56.567Z,83.92
2018-10-03T09:12:06.332Z,84.49
2018-10-03T09:13:16.372Z,84.97
2018-10-03T09:14:26.180Z,85.25
2018-10-03T09:15:36.225Z,85.35
2018-10-03T09:16:46.359Z,85.06
2018-10-03T09:17:56.402Z,85.3
2018-10-03T09:19:06.160Z,85.01
2018-10-03T09:20:16.204Z,85.11
2018-10-03T09:21:26.335Z,84.44
2018-10-03T09:22:36.532Z,85.2
2018-10-03T09:23:46.562Z,84.91
2018-10-03T09:24:56.323Z,84.91
2018-10-03T09:26:06.354Z,85.2
2018-10-03T09:27:16.117Z,85.3
2018-10-03T09:28:26.466Z,85.3
2018-10-03T09:29:36.642Z,85.58
2018-10-03T09:30:46.729Z,85.01
2018-10-03T09:31:56.229Z,85.01
2018-10-03T09:33:05.992Z,85.11
2018-10-03T09:34:16.076Z,85.11
2018-10-03T09:35:26.110Z,84.53
2018-10-03T09:36:36.150Z,84.53
2018-10-03T09:37:45.917Z,84.34
2018-10-03T09:38:55.690Z,84.06
2018-10-03T09:40:05.451Z,84.58
2018-10-03T09:41:15.264Z,85.43
2018-10-03T09:42:25.300Z,84.77
2018-10-03T09:43:34.792Z,83.15
2018-10-03T09:44:44.835Z,82.77
2018-10-03T09:45:54.598Z,83.15
2018-10-03T09:47:04.645Z,82.2
2018-10-03T09:48:14.146Z,80.87
2018-10-03T09:49:23.646Z,81.44
2018-10-03T09:50:32.872Z,81.25
2018-10-03T09:51:42.962Z,81.44
2018-10-03T09:52:52.730Z,78.02
2018-10-03T09:54:02.778Z,77.64
2018-10-03T09:55:12.267Z,77.26
2018-10-03T09:56:22.030Z,76.69
2018-10-03T09:57:31.573Z,77.26
2018-10-03T09:58:41.345Z,78.88
2018-10-03T09:59:51.386Z,79.44
2018-10-03T10:01:01.395Z,79.06
2018-10-03T10:02:11.168Z,77.87
2018-10-03T10:03:21.266Z,77.68
2018-10-03T10:04:30.763Z,78.91
2018-10-03T10:05:40.524Z,78.16
2018-10-03T10:06:50.557Z,77.97
2018-10-03T10:08:00.319Z,79.2
2018-10-03T10:09:10.080Z,78.44
2018-10-03T10:10:19.817Z,76.06
2018-10-03T10:11:30.112Z,75.4
2018-10-03T10:12:41.029Z,75.21
2018-10-03T10:13:51.059Z,75.96
2018-10-03T10:15:01.089Z,75.78
2018-10-03T10:16:10.590Z,77.68
2018-10-03T10:17:20.621Z,77.11
2018-10-03T10:18:30.659Z,76.82
2018-10-03T10:19:40.154Z,78.16
2018-10-03T10:20:50.135Z,74.82
2018-10-03T10:22:00.409Z,74.35
2018-10-03T10:23:09.904Z,75.11
2018-10-03T10:24:19.938Z,72.35
2018-10-03T10:25:29.717Z,74.29
2018-10-03T10:26:39.801Z,73.63
2018-10-03T10:27:49.564Z,73.63
2018-10-03T10:28:59.593Z,74.96
2018-10-03T10:30:09.355Z,74.1
2018-10-03T10:31:19.394Z,73.91
2018-10-03T10:32:29.903Z,72.67
2018-10-03T10:33:39.916Z,72.2
2018-10-03T10:34:49.948Z,72.96
2018-10-03T10:35:59.711Z,72.77
2018-10-03T10:37:09.284Z,72.39
2018-10-03T10:38:19.099Z,73.15
2018-10-03T10:39:29.149Z,72.39
2018-10-03T10:40:39.800Z,73.85
2018-10-03T10:41:49.873Z,73.95
2018-10-03T10:42:59.376Z,73.57
2018-10-03T10:44:09.185Z,72.33
2018-10-03T10:45:19.217Z,70.43
2018-10-03T10:46:29.044Z,71.47
2018-10-03T10:47:39.042Z,71.09
2018-10-03T10:48:48.534Z,71.03
2018-10-03T10:49:58.086Z,67.32
2018-10-03T10:51:07.927Z,69.79
2018-10-03T10:52:17.427Z,70.31
2018-10-03T10:53:27.468Z,66.91
2018-10-03T10:54:37.497Z,65.67
2018-10-03T10:55:47.312Z,66.75
2018-10-03T10:56:57.345Z,65.89
2018-10-03T10:58:06.847Z,61.35
2018-10-03T10:59:16.879Z,60.3
2018-10-03T11:00:26.654Z,60.87
2018-10-03T11:01:36.752Z,61.76
2018-10-03T11:02:46.792Z,60.61
2018-10-03T11:03:56.826Z,61.29
2018-10-03T11:05:06.600Z,62.65
2018-10-03T11:06:16.470Z,61.63
2018-10-03T11:07:27.049Z,60.9
2018-10-03T11:08:36.819Z,58.83
2018-10-03T11:09:46.592Z,59.62
2018-10-03T11:10:56.371Z,60.38
2018-10-03T11:12:06.137Z,58.86
2018-10-03T11:13:15.955Z,59.43
2018-10-03T11:14:25.733Z,59.45
2018-10-03T11:15:35.916Z,58.88
2018-10-03T11:16:46.495Z,55.94
2018-10-03T11:17:56.197Z,54.44
2018-10-03T11:19:06.287Z,52.62
2018-10-03T11:20:15.839Z,54.15
2018-10-03T11:21:25.083Z,52.64
2018-10-03T11:22:34.596Z,54.56
2018-10-03T11:23:44.489Z,55.26
2018-10-03T11:24:56.039Z,54.55
2018-10-03T11:26:06.306Z,53.87
2018-10-03T11:27:16.348Z,50.82
2018-10-03T11:28:26.403Z,52.65
2018-10-03T11:29:35.919Z,52.39
2018-10-03T11:30:46.017Z,49.12
2018-10-03T11:31:56.084Z,50.37
2018-10-03T11:33:06.388Z,50.76
2018-10-03T11:34:15.899Z,50.18
2018-10-03T11:35:25.954Z,48.76
2018-10-03T11:36:35.776Z,45.13
2018-10-03T11:37:45.551Z,45.85
2018-10-03T11:38:55.055Z,45.2
2018-10-03T11:40:04.299Z,46.74
2018-10-03T11:41:13.833Z,45.32
2018-10-03T11:42:23.665Z,48.3
2018-10-03T11:43:33.443Z,48.03
2018-10-03T11:44:43.247Z,46.91
2018-10-03T11:45:53.035Z,43.85
2018-10-03T11:47:02.810Z,42.88
2018-10-03T11:48:12.909Z,44.52
2018-10-03T11:49:22.964Z,43.37
2018-10-03T11:50:33.060Z,39.12
2018-10-03T11:51:43.045Z,38.91
2018-10-03T11:52:53.162Z,40.8
2018-10-03T11:54:03.266Z,42.16
2018-10-03T11:55:13.049Z,37.46
2018-10-03T11:56:23.102Z,41.3
2018-10-03T11:57:32.612Z,41.71
2018-10-03T11:58:42.662Z,39.51
2018-10-03T11:59:52.492Z,39.49
2018-10-03T12:01:02.005Z,43.15
2018-10-03T12:02:12.061Z,43.55
2018-10-03T12:03:22.103Z,43.7
2018-10-03T12:04:32.618Z,39.94
2018-10-03T12:05:42.457Z,38.87
2018-10-03T12:06:52.504Z,38.87
2018-10-03T12:08:02.562Z,37.13
2018-10-03T12:09:12.408Z,36.85
2018-10-03T12:10:21.696Z,35.58
2018-10-03T12:11:31.524Z,39.51
2018-10-03T12:12:41.569Z,38.58
2018-10-03T12:13:51.472Z,39.74
2018-10-03T12:15:01.333Z,39.11
2018-10-03T12:16:11.387Z,36.01
2018-10-03T12:17:21.487Z,37.25
2018-10-03T12:18:31.264Z,38.31
2018-10-03T12:19:40.776Z,38.33
2018-10-03T12:20:50.612Z,35.64
2018-10-03T12:22:00.125Z,37.65
2018-10-03T12:23:10.278Z,38.06
2018-10-03T12:24:20.325Z,34.79
2018-10-03T12:25:29.572Z,36.9
2018-10-03T12:26:39.085Z,37.12
2018-10-03T12:27:48.868Z,35.78
2018-10-03T12:28:59.464Z,33.63
2018-10-03T12:30:08.979Z,36.9
2018-10-03T12:31:18.769Z,36.74
2018-10-03T12:32:28.551Z,32.99
2018-10-03T12:33:38.157Z,30.38
2018-10-03T12:34:48.123Z,29.94
2018-10-03T12:35:58.179Z,31.27
2018-10-03T12:37:08.229Z,33.87
2018-10-03T12:38:18.278Z,34.47
2018-10-03T12:39:27.797Z,30.05
2018-10-03T12:40:37.900Z,30.21
2018-10-03T12:41:47.948Z,33.36
2018-10-03T12:42:57.731Z,35.98
2018-10-03T12:44:07.514Z,35.9
2018-10-03T12:45:17.492Z,35.9
2018-10-03T12:46:27.589Z,35.9
2018-10-03T12:47:37.634Z,33.09
2018-10-03T12:48:47.689Z,35.08
2018-10-03T12:49:57.730Z,36.51
2018-10-03T12:51:07.242Z,36.31
2018-10-03T12:52:17.067Z,36.39
2018-10-03T12:53:26.876Z,38.37
2018-10-03T12:54:37.048Z,38.45
2018-10-03T12:55:47.367Z,38.26
2018-10-03T12:56:57.142Z,38.51
2018-10-03T12:58:07.236Z,37.62
2018-10-03T12:59:17.009Z,38.45
2018-10-03T13:00:26.516Z,40.54
2018-10-03T13:01:36.568Z,40.81
2018-10-03T13:02:46.341Z,42.24
2018-10-03T13:03:56.168Z,42.03
2018-10-03T13:05:05.684Z,43.44
2018-10-03T13:06:15.722Z,44.76
2018-10-03T13:07:25.762Z,44.86
2018-10-03T13:08:35.809Z,46.46
2018-10-03T13:09:45.580Z,47.32
2018-10-03T13:10:55.082Z,47.13
2018-10-03T13:12:04.588Z,47.32
2018-10-03T13:13:14.373Z,48.09
2018-10-03T13:14:24.155Z,47.8
2018-10-03T13:15:33.929Z,47.71
2018-10-03T13:16:43.701Z,47.32
2018-10-03T13:17:53.737Z,47.49
2018-10-03T13:19:03.250Z,46.89
2018-10-03T13:20:13.286Z,46.7
2018-10-03T13:21:23.057Z,47.16
2018-10-03T13:22:32.304Z,47.92
2018-10-03T13:23:41.810Z,48.39
2018-10-03T13:24:51.845Z,49.35
2018-10-03T13:26:01.615Z,49.07
2018-10-03T13:27:11.403Z,49.8
2018-10-03T13:28:21.173Z,49.9
2018-10-03T13:29:31.219Z,51.04
2018-10-03T13:30:41.076Z,50.54
2018-10-03T13:31:51.445Z,50.07
2018-10-03T13:33:01.543Z,47.87
2018-10-03T13:34:11.046Z,47.2
2018-10-03T13:35:20.815Z,49.11
2018-10-03T13:36:30.855Z,50.07
2018-10-03T13:37:40.893Z,49.78
2018-10-03T13:38:50.444Z,49.68
2018-10-03T13:40:00.488Z,50.45
2018-10-03T13:41:09.989Z,50.8
2018-10-03T13:42:19.855Z,50.45
2018-10-03T13:43:29.951Z,51.66
2018-10-03T13:44:39.771Z,52.9
2018-10-03T13:45:49.809Z,50.61
2018-10-03T13:46:59.584Z,50.9
2018-10-03T13:48:09.359Z,51.95
2018-10-03T13:49:18.860Z,51.28
2018-10-03T13:50:28.963Z,52.42
2018-10-03T13:51:38.760Z,51.95
2018-10-03T13:52:48.527Z,53.47
2018-10-03T13:53:58.560Z,52.9
2018-10-03T13:55:07.796Z,52.97
2018-10-03T13:56:17.642Z,53.25
2018-10-03T13:57:27.146Z,53.44
2018-10-03T13:58:36.920Z,52.4
2018-10-03T13:59:46.422Z,51.54
2018-10-03T14:00:56.459Z,51.06
2018-10-03T14:02:06.273Z,52.14
2018-10-03T14:03:15.769Z,52.71
2018-10-03T14:04:25.810Z,53.19
2018-10-03T14:05:35.846Z,52.49
2018-10-03T14:06:45.879Z,52.01
2018-10-03T14:07:55.692Z,52.87
2018-10-03T14:09:05.458Z,53.44
2018-10-03T14:10:15.231Z,53.25
2018-10-03T14:11:25.260Z,52.49
2018-10-03T14:12:35.297Z,52.75
2018-10-03T14:13:45.111Z,53.64
2018-10-03T14:14:55.157Z,53.13
2018-10-03T14:16:04.661Z,53.25
2018-10-03T14:17:14.421Z,54.39
2018-10-03T14:18:24.295Z,54.3
2018-10-03T14:19:34.388Z,54.59
2018-10-03T14:20:44.156Z,54.11
2018-10-03T14:21:54.207Z,53.25
2018-10-03T14:23:04.244Z,54.11
2018-10-03T14:24:14.283Z,55.63
2018-10-03T14:25:24.267Z,54.39
2018-10-03T14:26:34.339Z,54.49
2018-10-03T14:27:44.122Z,54.97
2018-10-03T14:28:53.885Z,53.44
2018-10-03T14:30:03.980Z,53.35
2018-10-03T14:31:14.028Z,52.78
2018-10-03T14:32:23.806Z,51.76
2018-10-03T14:33:33.933Z,52.33
2018-10-03T14:34:43.709Z,51.4
2018-10-03T14:35:53.473Z,51.5
2018-10-03T14:37:03.294Z,51.5
2018-10-03T14:38:13.338Z,49.78
2018-10-03T14:39:23.385Z,51.78
2018-10-03T14:40:33.151Z,50.26
2018-10-03T14:41:42.435Z,49.78
2018-10-03T14:42:52.247Z,51.59
2018-10-03T14:44:02.036Z,49.3
2018-10-03T14:45:11.539Z,49.87
2018-10-03T14:46:21.325Z,49.04
2018-10-03T14:47:30.824Z,47.97
2018-10-03T14:48:40.640Z,48.16
2018-10-03T14:49:50.409Z,48.63
2018-10-03T14:51:00.446Z,49.02
2018-10-03T14:52:10.721Z,48.35
2018-10-03T14:53:21.190Z,48.73
2018-10-03T14:54:31.013Z,49.68
2018-10-03T14:55:41.049Z,48.92
2018-10-03T14:56:51.095Z,48.32
2018-10-03T14:58:00.868Z,48.04
2018-10-03T14:59:10.634Z,48.99
2018-10-03T15:00:20.681Z,49.08
2018-10-03T15:01:30.490Z,49.92
2018-10-03T15:02:40.489Z,50.78